Terminal Aerodrome Forecast
Issued by NWS

Home | Current Version | Previous Version | Text Only | Print | Product List | Glossary On
Versions: 1 2 3 4 5 6 7 8 9 10 11 12 13 14 15 16 17 18
000
FTUS43 KFGF 251236 AAA
TAFDVL
TAF AMD
KDVL 251236Z 2513/2612 19016G20KT P6SM OVC010
      TEMPO 2513/2515 2SM -SHRA OVC003
     FM251500 31024G28KT P6SM VCSH OVC015
     FM251800 31024G34KT P6SM VCSH OVC030
     FM252100 32023G32KT P6SM SCT110
     FM260000 33015KT P6SM FEW150=

USA.gov is the U.S. government's official web portal to all federal, state and local government web resources and services.